Aeroporto :
LOGIN :

Iscrizione | Disclaimer

   EN    FR    IT 

 










Sommario :    VFR   VFR Marginale   IFR   IFR Intensivo   IFR Molto Intensivo
Visibilità : 
Base nubi : 
>= 8 km
>= 3000ft
5 / 8 km
1000 / 3000 ft
1500m / 5 km
500 / 1000 ft
800 / 1500m
200 / 500 ft
< 800m
< 200 ft
Simboli :   Temporali  Nebbia  Neve Forte  Precipitazioni Forti  Vento > 20 kt
SIGMETs :   Varie  Temporali  Ghiacco  Turbolenza  Onda orograficha  Ceneri Vulcaniche






- Altitudine del aeroporto : 138 ft
- Codice IATA : BIO


LEBB - Bilbao

ULTIMO METAR :
  • 171800Z 29007KT 9999 -DZ FEW025 BKN040 11/08 Q1033 NOSIG

METARs OBSOLETI :
  • 171730Z 30011KT 280V350 9999 SCT028 BKN040 12/08 Q1032 NOSIG
  • 171700Z 30015KT 9999 FEW030 SCT060 12/07 Q1032 NOSIG
  • 171630Z 30017KT 9999 FEW035 BKN059 13/06 Q1031 NOSIG
  • 171600Z 30016KT 9999 FEW030 BKN059 13/07 Q1031 NOSIG
  • 171530Z 30014G25KT 9999 FEW030 BKN057 12/07 Q1031 NOSIG

TAF TAF LEBB
Valido dal 17 a 18 ore il 18 a 18 ore UTC


171700Z 1718/1818 30009KT 9999 SCT035 TX13/1812Z TN05/1806Z
TEMPO 1718/1721 30015G25KT
PROB30
TEMPO 1718/1721 SHRA SCT030TCU
PROB40
TEMPO 1718/1724 SCT030TCU



MetMap, La meteo Aeronautica in un colpo d'occhio ! - Copyright ORBIFLY Dicembre 2007 - Disclaimer

ORBIFLY MET'MAP TEAM :

Programmazione e sviluppo : Alexandra Zaïnal
Concezione : Baudouin d'Aumeries
Aiuto per la programmazione : Marc-Olivier Méhu
Supporto tecnico e logistico : Manuel Goepfert
Aiuto per la traduzione : Arnaldo La Scala

Contatto : metmap@orbifly.com




FONTI E CREDITI :

   NOAA